sensor_id;sensor_type;location;lat;lon;timestamp;temperature;humidity
12977;DHT22;6553;48.412;9.514;2023-04-03T00:01:36;18.90;55.10
12977;DHT22;6553;48.412;9.514;2023-04-03T00:04:05;19.00;55.20
12977;DHT22;6553;48.412;9.514;2023-04-03T00:06:32;18.90;55.10
12977;DHT22;6553;48.412;9.514;2023-04-03T00:08:58;18.90;55.10
12977;DHT22;6553;48.412;9.514;2023-04-03T00:11:24;18.90;55.10
12977;DHT22;6553;48.412;9.514;2023-04-03T00:13:50;19.00;55.20
12977;DHT22;6553;48.412;9.514;2023-04-03T00:16:16;18.90;55.10
12977;DHT22;6553;48.412;9.514;2023-04-03T00:18:43;18.90;55.10
12977;DHT22;6553;48.412;9.514;2023-04-03T00:21:11;18.90;55.10
12977;DHT22;6553;48.412;9.514;2023-04-03T00:23:38;18.90;55.10
12977;DHT22;6553;48.412;9.514;2023-04-03T00:26:04;18.90;55.10
12977;DHT22;6553;48.412;9.514;2023-04-03T00:28:29;18.90;55.10
12977;DHT22;6553;48.412;9.514;2023-04-03T00:30:55;18.90;55.00
12977;DHT22;6553;48.412;9.514;2023-04-03T00:33:21;18.90;55.10
12977;DHT22;6553;48.412;9.514;2023-04-03T00:35:47;18.90;55.00
12977;DHT22;6553;48.412;9.514;2023-04-03T00:38:14;18.90;54.90
12977;DHT22;6553;48.412;9.514;2023-04-03T00:40:46;18.90;55.00
12977;DHT22;6553;48.412;9.514;2023-04-03T00:43:23;18.90;54.90
12977;DHT22;6553;48.412;9.514;2023-04-03T00:45:52;18.90;54.90
12977;DHT22;6553;48.412;9.514;2023-04-03T00:48:31;18.90;54.90
12977;DHT22;6553;48.412;9.514;2023-04-03T00:51:01;18.90;54.90
12977;DHT22;6553;48.412;9.514;2023-04-03T00:53:33;18.90;54.90
12977;DHT22;6553;48.412;9.514;2023-04-03T00:56:05;18.90;54.90
12977;DHT22;6553;48.412;9.514;2023-04-03T00:58:47;18.90;54.80
12977;DHT22;6553;48.412;9.514;2023-04-03T01:01:20;18.90;54.90
12977;DHT22;6553;48.412;9.514;2023-04-03T01:03:49;18.90;54.80
12977;DHT22;6553;48.412;9.514;2023-04-03T01:06:17;18.90;54.80
12977;DHT22;6553;48.412;9.514;2023-04-03T01:08:49;18.90;54.80
12977;DHT22;6553;48.412;9.514;2023-04-03T01:11:15;18.90;54.80
12977;DHT22;6553;48.412;9.514;2023-04-03T01:13:42;18.90;54.90
12977;DHT22;6553;48.412;9.514;2023-04-03T01:16:09;18.90;54.80
12977;DHT22;6553;48.412;9.514;2023-04-03T01:18:38;18.90;54.80
12977;DHT22;6553;48.412;9.514;2023-04-03T01:24:22;18.90;54.80
12977;DHT22;6553;48.412;9.514;2023-04-03T01:27:01;18.90;54.80
12977;DHT22;6553;48.412;9.514;2023-04-03T01:29:29;18.90;54.80
12977;DHT22;6553;48.412;9.514;2023-04-03T01:31:58;18.90;54.70
12977;DHT22;6553;48.412;9.514;2023-04-03T01:34:27;18.90;54.80
12977;DHT22;6553;48.412;9.514;2023-04-03T01:36:54;18.90;54.70
12977;DHT22;6553;48.412;9.514;2023-04-03T01:39:21;18.90;54.70
12977;DHT22;6553;48.412;9.514;2023-04-03T01:41:48;18.90;54.70
12977;DHT22;6553;48.412;9.514;2023-04-03T01:44:24;18.90;54.70
12977;DHT22;6553;48.412;9.514;2023-04-03T01:46:50;18.90;54.70
12977;DHT22;6553;48.412;9.514;2023-04-03T01:49:16;18.90;54.70
12977;DHT22;6553;48.412;9.514;2023-04-03T01:51:41;18.90;54.60
12977;DHT22;6553;48.412;9.514;2023-04-03T01:54:07;18.90;54.60
12977;DHT22;6553;48.412;9.514;2023-04-03T01:56:33;18.90;54.60
12977;DHT22;6553;48.412;9.514;2023-04-03T01:58:59;18.90;54.60
12977;DHT22;6553;48.412;9.514;2023-04-03T02:01:25;18.90;54.60
12977;DHT22;6553;48.412;9.514;2023-04-03T02:03:51;18.90;54.60
12977;DHT22;6553;48.412;9.514;2023-04-03T02:06:17;18.90;54.60
12977;DHT22;6553;48.412;9.514;2023-04-03T02:08:42;18.90;54.60
12977;DHT22;6553;48.412;9.514;2023-04-03T02:11:08;18.90;54.50
12977;DHT22;6553;48.412;9.514;2023-04-03T02:13:34;18.90;55.20
12977;DHT22;6553;48.412;9.514;2023-04-03T02:16:06;18.90;54.50
12977;DHT22;6553;48.412;9.514;2023-04-03T02:18:33;18.90;54.60
12977;DHT22;6553;48.412;9.514;2023-04-03T02:20:58;18.90;54.60
12977;DHT22;6553;48.412;9.514;2023-04-03T02:23:25;18.90;54.60
12977;DHT22;6553;48.412;9.514;2023-04-03T02:25:51;18.90;54.50
12977;DHT22;6553;48.412;9.514;2023-04-03T02:28:17;18.90;54.50
12977;DHT22;6553;48.412;9.514;2023-04-03T02:30:42;18.90;54.50
12977;DHT22;6553;48.412;9.514;2023-04-03T02:33:10;18.90;54.50
12977;DHT22;6553;48.412;9.514;2023-04-03T02:35:36;18.90;54.50
12977;DHT22;6553;48.412;9.514;2023-04-03T02:38:02;18.90;54.50
12977;DHT22;6553;48.412;9.514;2023-04-03T02:40:28;18.90;54.50
12977;DHT22;6553;48.412;9.514;2023-04-03T02:42:54;18.90;54.50
12977;DHT22;6553;48.412;9.514;2023-04-03T02:45:21;18.90;54.50
12977;DHT22;6553;48.412;9.514;2023-04-03T02:47:47;18.90;54.50
12977;DHT22;6553;48.412;9.514;2023-04-03T02:50:13;18.90;54.40
12977;DHT22;6553;48.412;9.514;2023-04-03T02:52:38;18.90;54.40
12977;DHT22;6553;48.412;9.514;2023-04-03T02:55:05;18.90;54.40
12977;DHT22;6553;48.412;9.514;2023-04-03T02:57:31;18.90;54.40
12977;DHT22;6553;48.412;9.514;2023-04-03T02:59:57;18.90;54.40
12977;DHT22;6553;48.412;9.514;2023-04-03T03:02:23;18.90;55.00
12977;DHT22;6553;48.412;9.514;2023-04-03T03:04:49;18.90;54.50
12977;DHT22;6553;48.412;9.514;2023-04-03T03:07:15;18.90;54.40
12977;DHT22;6553;48.412;9.514;2023-04-03T03:09:41;18.90;54.40
12977;DHT22;6553;48.412;9.514;2023-04-03T03:12:06;18.90;54.40
12977;DHT22;6553;48.412;9.514;2023-04-03T03:14:32;18.90;54.40
12977;DHT22;6553;48.412;9.514;2023-04-03T03:16:58;18.90;54.30
12977;DHT22;6553;48.412;9.514;2023-04-03T03:19:24;18.90;54.30
12977;DHT22;6553;48.412;9.514;2023-04-03T03:21:51;18.90;54.30
12977;DHT22;6553;48.412;9.514;2023-04-03T03:24:17;18.90;54.30
12977;DHT22;6553;48.412;9.514;2023-04-03T03:26:43;18.90;54.30
12977;DHT22;6553;48.412;9.514;2023-04-03T03:29:09;18.90;54.30
12977;DHT22;6553;48.412;9.514;2023-04-03T03:31:36;18.90;54.20
12977;DHT22;6553;48.412;9.514;2023-04-03T03:34:01;18.90;54.30
12977;DHT22;6553;48.412;9.514;2023-04-03T03:36:27;18.90;54.20
12977;DHT22;6553;48.412;9.514;2023-04-03T03:38:53;18.90;54.20
12977;DHT22;6553;48.412;9.514;2023-04-03T03:41:19;18.90;54.20
12977;DHT22;6553;48.412;9.514;2023-04-03T03:43:45;18.90;54.20
12977;DHT22;6553;48.412;9.514;2023-04-03T03:46:13;18.90;54.10
12977;DHT22;6553;48.412;9.514;2023-04-03T03:48:38;18.90;54.10
12977;DHT22;6553;48.412;9.514;2023-04-03T03:51:04;18.90;54.10
12977;DHT22;6553;48.412;9.514;2023-04-03T03:53:34;18.90;54.20
12977;DHT22;6553;48.412;9.514;2023-04-03T03:56:04;18.90;54.10
12977;DHT22;6553;48.412;9.514;2023-04-03T03:58:32;18.90;54.10
12977;DHT22;6553;48.412;9.514;2023-04-03T04:01:05;18.90;54.10
12977;DHT22;6553;48.412;9.514;2023-04-03T04:03:34;18.90;54.10
12977;DHT22;6553;48.412;9.514;2023-04-03T04:06:01;18.90;54.10
12977;DHT22;6553;48.412;9.514;2023-04-03T04:08:26;18.90;54.00
12977;DHT22;6553;48.412;9.514;2023-04-03T04:10:52;18.90;54.00
12977;DHT22;6553;48.412;9.514;2023-04-03T04:13:18;18.90;54.00
12977;DHT22;6553;48.412;9.514;2023-04-03T04:15:45;18.90;54.00
12977;DHT22;6553;48.412;9.514;2023-04-03T04:18:11;18.90;54.10
12977;DHT22;6553;48.412;9.514;2023-04-03T04:20:39;18.90;54.00
12977;DHT22;6553;48.412;9.514;2023-04-03T04:23:05;18.90;54.00
12977;DHT22;6553;48.412;9.514;2023-04-03T04:25:31;18.90;54.00
12977;DHT22;6553;48.412;9.514;2023-04-03T04:27:58;18.90;54.00
12977;DHT22;6553;48.412;9.514;2023-04-03T04:30:24;18.90;54.00
12977;DHT22;6553;48.412;9.514;2023-04-03T04:32:50;18.90;53.90
12977;DHT22;6553;48.412;9.514;2023-04-03T04:35:16;18.90;53.90
12977;DHT22;6553;48.412;9.514;2023-04-03T04:37:45;18.90;53.90
12977;DHT22;6553;48.412;9.514;2023-04-03T04:40:11;18.90;53.90
12977;DHT22;6553;48.412;9.514;2023-04-03T04:42:37;18.90;53.80
12977;DHT22;6553;48.412;9.514;2023-04-03T04:45:03;18.90;53.90
12977;DHT22;6553;48.412;9.514;2023-04-03T04:47:30;18.90;53.80
12977;DHT22;6553;48.412;9.514;2023-04-03T04:49:55;18.90;53.80
12977;DHT22;6553;48.412;9.514;2023-04-03T04:52:21;18.90;53.90
12977;DHT22;6553;48.412;9.514;2023-04-03T04:54:47;18.90;53.80
12977;DHT22;6553;48.412;9.514;2023-04-03T04:57:13;18.90;53.80
12977;DHT22;6553;48.412;9.514;2023-04-03T04:59:39;18.90;53.80
12977;DHT22;6553;48.412;9.514;2023-04-03T05:02:06;18.90;53.80
12977;DHT22;6553;48.412;9.514;2023-04-03T05:04:32;18.90;53.80
12977;DHT22;6553;48.412;9.514;2023-04-03T05:07:05;18.90;53.70
12977;DHT22;6553;48.412;9.514;2023-04-03T05:09:33;18.90;53.70
12977;DHT22;6553;48.412;9.514;2023-04-03T05:12:00;18.90;53.70
12977;DHT22;6553;48.412;9.514;2023-04-03T05:14:30;18.90;53.70
12977;DHT22;6553;48.412;9.514;2023-04-03T05:17:00;18.90;53.70
12977;DHT22;6553;48.412;9.514;2023-04-03T05:19:29;18.90;53.70
12977;DHT22;6553;48.412;9.514;2023-04-03T05:21:56;18.90;53.60
12977;DHT22;6553;48.412;9.514;2023-04-03T05:24:22;18.90;53.60
12977;DHT22;6553;48.412;9.514;2023-04-03T05:26:48;18.90;53.60
12977;DHT22;6553;48.412;9.514;2023-04-03T05:29:14;18.90;53.60
12977;DHT22;6553;48.412;9.514;2023-04-03T05:31:41;18.90;53.60
12977;DHT22;6553;48.412;9.514;2023-04-03T05:34:09;18.90;53.60
12977;DHT22;6553;48.412;9.514;2023-04-03T05:36:36;18.90;53.60
12977;DHT22;6553;48.412;9.514;2023-04-03T05:39:05;18.90;53.60
12977;DHT22;6553;48.412;9.514;2023-04-03T05:41:33;18.90;53.60
12977;DHT22;6553;48.412;9.514;2023-04-03T05:44:00;18.90;53.60
12977;DHT22;6553;48.412;9.514;2023-04-03T05:46:26;18.90;53.60
12977;DHT22;6553;48.412;9.514;2023-04-03T05:48:55;18.90;53.60
12977;DHT22;6553;48.412;9.514;2023-04-03T05:51:29;18.90;53.60
12977;DHT22;6553;48.412;9.514;2023-04-03T05:56:51;18.90;54.10
12977;DHT22;6553;48.412;9.514;2023-04-03T05:59:19;18.90;53.50
12977;DHT22;6553;48.412;9.514;2023-04-03T06:01:46;18.90;53.40
12977;DHT22;6553;48.412;9.514;2023-04-03T06:04:13;18.90;53.40
12977;DHT22;6553;48.412;9.514;2023-04-03T06:06:48;18.90;53.40
12977;DHT22;6553;48.412;9.514;2023-04-03T06:09:19;18.90;53.40
12977;DHT22;6553;48.412;9.514;2023-04-03T06:11:46;18.90;53.40
12977;DHT22;6553;48.412;9.514;2023-04-03T06:14:12;19.00;53.50
12977;DHT22;6553;48.412;9.514;2023-04-03T06:16:39;18.90;53.40
12977;DHT22;6553;48.412;9.514;2023-04-03T06:19:08;18.90;53.40
12977;DHT22;6553;48.412;9.514;2023-04-03T06:21:38;18.90;53.40
12977;DHT22;6553;48.412;9.514;2023-04-03T06:24:05;18.90;53.40
12977;DHT22;6553;48.412;9.514;2023-04-03T06:26:32;18.90;53.40
12977;DHT22;6553;48.412;9.514;2023-04-03T06:28:59;19.00;53.40
12977;DHT22;6553;48.412;9.514;2023-04-03T06:31:25;18.90;53.40
12977;DHT22;6553;48.412;9.514;2023-04-03T06:33:51;18.90;53.40
12977;DHT22;6553;48.412;9.514;2023-04-03T06:36:19;19.00;53.50
12977;DHT22;6553;48.412;9.514;2023-04-03T06:38:46;18.90;53.40
12977;DHT22;6553;48.412;9.514;2023-04-03T06:41:13;19.00;53.40
12977;DHT22;6553;48.412;9.514;2023-04-03T06:43:38;19.00;53.40
12977;DHT22;6553;48.412;9.514;2023-04-03T06:46:04;19.00;53.40
12977;DHT22;6553;48.412;9.514;2023-04-03T06:48:30;19.00;53.30
12977;DHT22;6553;48.412;9.514;2023-04-03T06:50:56;19.00;53.30
12977;DHT22;6553;48.412;9.514;2023-04-03T06:53:23;19.00;53.30
12977;DHT22;6553;48.412;9.514;2023-04-03T06:55:49;19.00;53.30
12977;DHT22;6553;48.412;9.514;2023-04-03T06:58:15;19.00;53.30
12977;DHT22;6553;48.412;9.514;2023-04-03T07:00:42;19.00;53.30
12977;DHT22;6553;48.412;9.514;2023-04-03T07:03:08;19.00;53.40
12977;DHT22;6553;48.412;9.514;2023-04-03T07:05:34;19.00;53.30
12977;DHT22;6553;48.412;9.514;2023-04-03T07:08:00;19.00;53.30
12977;DHT22;6553;48.412;9.514;2023-04-03T07:10:26;19.00;53.30
12977;DHT22;6553;48.412;9.514;2023-04-03T07:12:52;19.00;53.30
12977;DHT22;6553;48.412;9.514;2023-04-03T07:15:18;19.00;53.30
12977;DHT22;6553;48.412;9.514;2023-04-03T07:17:43;19.00;53.30
12977;DHT22;6553;48.412;9.514;2023-04-03T07:20:10;19.00;53.30
12977;DHT22;6553;48.412;9.514;2023-04-03T07:22:36;19.00;53.30
12977;DHT22;6553;48.412;9.514;2023-04-03T07:25:03;19.00;53.30
12977;DHT22;6553;48.412;9.514;2023-04-03T07:27:29;19.00;53.20
12977;DHT22;6553;48.412;9.514;2023-04-03T07:29:56;19.00;53.20
12977;DHT22;6553;48.412;9.514;2023-04-03T07:32:21;19.10;53.30
12977;DHT22;6553;48.412;9.514;2023-04-03T07:34:47;19.00;53.20
12977;DHT22;6553;48.412;9.514;2023-04-03T07:37:13;19.10;53.20
12977;DHT22;6553;48.412;9.514;2023-04-03T07:39:38;19.10;53.20
12977;DHT22;6553;48.412;9.514;2023-04-03T07:42:05;19.10;53.20
12977;DHT22;6553;48.412;9.514;2023-04-03T07:44:31;19.00;53.20
12977;DHT22;6553;48.412;9.514;2023-04-03T07:46:57;19.00;53.20
12977;DHT22;6553;48.412;9.514;2023-04-03T07:49:23;19.00;53.20
12977;DHT22;6553;48.412;9.514;2023-04-03T07:51:50;19.10;53.10
12977;DHT22;6553;48.412;9.514;2023-04-03T07:54:17;19.00;53.10
12977;DHT22;6553;48.412;9.514;2023-04-03T07:56:42;19.00;53.00
12977;DHT22;6553;48.412;9.514;2023-04-03T07:59:09;19.10;53.20
12977;DHT22;6553;48.412;9.514;2023-04-03T08:01:36;19.10;53.10
12977;DHT22;6553;48.412;9.514;2023-04-03T08:04:01;19.10;53.10
12977;DHT22;6553;48.412;9.514;2023-04-03T08:06:27;19.10;53.10
12977;DHT22;6553;48.412;9.514;2023-04-03T08:08:55;19.10;53.10
12977;DHT22;6553;48.412;9.514;2023-04-03T08:11:21;19.10;53.10
12977;DHT22;6553;48.412;9.514;2023-04-03T08:13:49;19.10;53.10
12977;DHT22;6553;48.412;9.514;2023-04-03T08:16:17;19.10;53.10
12977;DHT22;6553;48.412;9.514;2023-04-03T08:18:45;19.10;53.10
12977;DHT22;6553;48.412;9.514;2023-04-03T08:21:12;19.10;53.10
12977;DHT22;6553;48.412;9.514;2023-04-03T08:23:39;19.10;53.00
12977;DHT22;6553;48.412;9.514;2023-04-03T08:26:12;19.10;52.90
12977;DHT22;6553;48.412;9.514;2023-04-03T08:28:39;19.10;52.90
12977;DHT22;6553;48.412;9.514;2023-04-03T08:31:08;19.10;52.90
12977;DHT22;6553;48.412;9.514;2023-04-03T08:33:38;19.10;52.90
12977;DHT22;6553;48.412;9.514;2023-04-03T08:36:06;19.10;52.80
12977;DHT22;6553;48.412;9.514;2023-04-03T08:38:34;19.10;52.80
12977;DHT22;6553;48.412;9.514;2023-04-03T08:41:25;19.10;52.80
12977;DHT22;6553;48.412;9.514;2023-04-03T08:47:09;19.20;52.90
12977;DHT22;6553;48.412;9.514;2023-04-03T08:49:43;19.10;52.80
12977;DHT22;6553;48.412;9.514;2023-04-03T08:52:18;19.10;52.80
12977;DHT22;6553;48.412;9.514;2023-04-03T08:54:57;19.20;53.00
12977;DHT22;6553;48.412;9.514;2023-04-03T08:57:37;19.20;52.80
12977;DHT22;6553;48.412;9.514;2023-04-03T09:02:51;19.20;52.80
12977;DHT22;6553;48.412;9.514;2023-04-03T09:08:12;19.20;52.80
12977;DHT22;6553;48.412;9.514;2023-04-03T09:10:43;19.20;52.90
12977;DHT22;6553;48.412;9.514;2023-04-03T09:14:04;19.20;52.80
12977;DHT22;6553;48.412;9.514;2023-04-03T09:16:49;19.20;52.80
12977;DHT22;6553;48.412;9.514;2023-04-03T09:22:00;19.20;52.70
12977;DHT22;6553;48.412;9.514;2023-04-03T09:24:37;19.20;52.80
12977;DHT22;6553;48.412;9.514;2023-04-03T09:27:09;19.20;52.80
12977;DHT22;6553;48.412;9.514;2023-04-03T09:29:43;19.20;52.90
12977;DHT22;6553;48.412;9.514;2023-04-03T09:32:32;19.20;52.80
12977;DHT22;6553;48.412;9.514;2023-04-03T09:37:45;19.20;52.80
12977;DHT22;6553;48.412;9.514;2023-04-03T09:40:29;19.20;52.80
12977;DHT22;6553;48.412;9.514;2023-04-03T09:45:42;19.20;52.70
12977;DHT22;6553;48.412;9.514;2023-04-03T09:48:17;19.20;52.70
12977;DHT22;6553;48.412;9.514;2023-04-03T09:53:34;19.20;52.60
12977;DHT22;6553;48.412;9.514;2023-04-03T10:01:59;19.20;52.70
12977;DHT22;6553;48.412;9.514;2023-04-03T10:04:23;19.20;52.70
12977;DHT22;6553;48.412;9.514;2023-04-03T10:06:55;19.20;52.60
12977;DHT22;6553;48.412;9.514;2023-04-03T10:09:28;19.20;52.60
12977;DHT22;6553;48.412;9.514;2023-04-03T10:12:03;19.20;52.60
12977;DHT22;6553;48.412;9.514;2023-04-03T10:14:54;19.20;52.60
12977;DHT22;6553;48.412;9.514;2023-04-03T10:20:44;19.20;52.60
12977;DHT22;6553;48.412;9.514;2023-04-03T10:23:26;19.20;52.60
12977;DHT22;6553;48.412;9.514;2023-04-03T10:28:48;19.20;52.60
12977;DHT22;6553;48.412;9.514;2023-04-03T10:31:50;19.20;52.50
12977;DHT22;6553;48.412;9.514;2023-04-03T10:34:21;19.20;52.60
12977;DHT22;6553;48.412;9.514;2023-04-03T10:37:22;19.20;52.60
12977;DHT22;6553;48.412;9.514;2023-04-03T10:39:59;19.20;52.50
12977;DHT22;6553;48.412;9.514;2023-04-03T10:46:04;19.20;52.60
12977;DHT22;6553;48.412;9.514;2023-04-03T10:51:48;19.20;52.60
12977;DHT22;6553;48.412;9.514;2023-04-03T10:54:33;19.20;52.50
12977;DHT22;6553;48.412;9.514;2023-04-03T10:57:05;19.20;52.50
12977;DHT22;6553;48.412;9.514;2023-04-03T11:02:36;19.20;52.50
12977;DHT22;6553;48.412;9.514;2023-04-03T11:08:04;19.20;52.40
12977;DHT22;6553;48.412;9.514;2023-04-03T11:10:57;19.20;52.40
12977;DHT22;6553;48.412;9.514;2023-04-03T11:13:52;19.20;52.40
12977;DHT22;6553;48.412;9.514;2023-04-03T11:16:31;19.20;52.50
12977;DHT22;6553;48.412;9.514;2023-04-03T11:25:18;19.20;52.40
12977;DHT22;6553;48.412;9.514;2023-04-03T11:30:50;19.20;52.50
12977;DHT22;6553;48.412;9.514;2023-04-03T11:36:52;19.20;52.50
12977;DHT22;6553;48.412;9.514;2023-04-03T11:39:35;19.20;52.50
12977;DHT22;6553;48.412;9.514;2023-04-03T11:42:39;19.20;52.50
12977;DHT22;6553;48.412;9.514;2023-04-03T11:48:02;19.30;52.60
12977;DHT22;6553;48.412;9.514;2023-04-03T11:50:48;19.20;52.40
12977;DHT22;6553;48.412;9.514;2023-04-03T11:58:25;19.20;52.30
12977;DHT22;6553;48.412;9.514;2023-04-03T12:01:05;19.20;52.30
12977;DHT22;6553;48.412;9.514;2023-04-03T12:11:31;19.40;53.00
12977;DHT22;6553;48.412;9.514;2023-04-03T12:19:02;19.30;53.10
12977;DHT22;6553;48.412;9.514;2023-04-03T12:41:27;19.30;52.80
12977;DHT22;6553;48.412;9.514;2023-04-03T12:44:31;19.30;52.70
12977;DHT22;6553;48.412;9.514;2023-04-03T12:47:15;19.30;52.80
12977;DHT22;6553;48.412;9.514;2023-04-03T12:49:49;19.30;52.80
12977;DHT22;6553;48.412;9.514;2023-04-03T12:52:26;19.30;52.70
12977;DHT22;6553;48.412;9.514;2023-04-03T12:55:00;19.30;52.70
12977;DHT22;6553;48.412;9.514;2023-04-03T12:57:30;19.30;52.70
12977;DHT22;6553;48.412;9.514;2023-04-03T12:59:58;19.30;52.70
12977;DHT22;6553;48.412;9.514;2023-04-03T13:02:28;19.30;52.70
12977;DHT22;6553;48.412;9.514;2023-04-03T13:04:58;19.30;52.70
12977;DHT22;6553;48.412;9.514;2023-04-03T13:07:36;19.30;52.60
12977;DHT22;6553;48.412;9.514;2023-04-03T13:12:55;19.30;52.70
12977;DHT22;6553;48.412;9.514;2023-04-03T13:18:10;19.30;52.60
12977;DHT22;6553;48.412;9.514;2023-04-03T13:20:51;19.30;52.60
12977;DHT22;6553;48.412;9.514;2023-04-03T13:23:19;19.30;52.60
12977;DHT22;6553;48.412;9.514;2023-04-03T13:25:47;19.30;52.50
12977;DHT22;6553;48.412;9.514;2023-04-03T13:28:19;19.30;52.40
12977;DHT22;6553;48.412;9.514;2023-04-03T13:31:15;19.30;52.40
12977;DHT22;6553;48.412;9.514;2023-04-03T13:36:37;19.30;53.00
12977;DHT22;6553;48.412;9.514;2023-04-03T13:41:55;19.30;52.40
12977;DHT22;6553;48.412;9.514;2023-04-03T13:47:18;19.40;52.50
12977;DHT22;6553;48.412;9.514;2023-04-03T13:50:12;19.40;52.40
12977;DHT22;6553;48.412;9.514;2023-04-03T13:52:47;19.30;52.50
12977;DHT22;6553;48.412;9.514;2023-04-03T13:55:25;19.30;52.50
12977;DHT22;6553;48.412;9.514;2023-04-03T14:00:39;19.30;52.40
12977;DHT22;6553;48.412;9.514;2023-04-03T14:03:39;19.30;52.40
12977;DHT22;6553;48.412;9.514;2023-04-03T14:06:16;19.30;52.40
12977;DHT22;6553;48.412;9.514;2023-04-03T14:08:43;19.30;52.40
12977;DHT22;6553;48.412;9.514;2023-04-03T14:11:16;19.30;52.40
12977;DHT22;6553;48.412;9.514;2023-04-03T14:13:47;19.30;52.30
12977;DHT22;6553;48.412;9.514;2023-04-03T14:16:26;19.30;52.30
12977;DHT22;6553;48.412;9.514;2023-04-03T14:18:55;19.30;52.30
12977;DHT22;6553;48.412;9.514;2023-04-03T14:21:21;19.30;52.20
12977;DHT22;6553;48.412;9.514;2023-04-03T14:23:47;19.30;52.20
12977;DHT22;6553;48.412;9.514;2023-04-03T14:26:18;19.30;52.20
12977;DHT22;6553;48.412;9.514;2023-04-03T14:28:49;19.50;53.10
12977;DHT22;6553;48.412;9.514;2023-04-03T14:31:18;19.50;52.60
12977;DHT22;6553;48.412;9.514;2023-04-03T14:33:45;19.50;52.80
12977;DHT22;6553;48.412;9.514;2023-04-03T14:36:16;19.40;52.90
12977;DHT22;6553;48.412;9.514;2023-04-03T14:38:45;19.30;52.90
12977;DHT22;6553;48.412;9.514;2023-04-03T14:41:13;19.30;52.80
12977;DHT22;6553;48.412;9.514;2023-04-03T14:43:40;19.30;53.40
12977;DHT22;6553;48.412;9.514;2023-04-03T14:46:14;19.30;52.80
12977;DHT22;6553;48.412;9.514;2023-04-03T14:48:42;19.30;52.80
12977;DHT22;6553;48.412;9.514;2023-04-03T14:51:13;19.30;52.70
12977;DHT22;6553;48.412;9.514;2023-04-03T14:53:41;19.30;52.70
12977;DHT22;6553;48.412;9.514;2023-04-03T14:58:48;19.30;52.60
12977;DHT22;6553;48.412;9.514;2023-04-03T15:01:17;19.30;52.60
12977;DHT22;6553;48.412;9.514;2023-04-03T15:03:43;19.30;52.60
12977;DHT22;6553;48.412;9.514;2023-04-03T15:06:11;19.30;53.20
12977;DHT22;6553;48.412;9.514;2023-04-03T15:08:40;19.30;52.60
12977;DHT22;6553;48.412;9.514;2023-04-03T15:11:09;19.30;52.60
12977;DHT22;6553;48.412;9.514;2023-04-03T15:13:36;19.30;52.60
12977;DHT22;6553;48.412;9.514;2023-04-03T15:16:04;19.30;52.60
12977;DHT22;6553;48.412;9.514;2023-04-03T15:18:35;19.20;52.50
12977;DHT22;6553;48.412;9.514;2023-04-03T15:21:03;19.30;52.60
12977;DHT22;6553;48.412;9.514;2023-04-03T15:23:30;19.30;52.60
12977;DHT22;6553;48.412;9.514;2023-04-03T15:25:56;19.30;52.50
12977;DHT22;6553;48.412;9.514;2023-04-03T15:28:35;19.30;52.40
12977;DHT22;6553;48.412;9.514;2023-04-03T15:31:03;19.30;52.40
12977;DHT22;6553;48.412;9.514;2023-04-03T15:33:30;19.30;52.40
12977;DHT22;6553;48.412;9.514;2023-04-03T15:35:57;19.30;52.40
12977;DHT22;6553;48.412;9.514;2023-04-03T15:38:23;19.30;52.30
12977;DHT22;6553;48.412;9.514;2023-04-03T15:40:49;19.30;52.20
12977;DHT22;6553;48.412;9.514;2023-04-03T15:43:15;19.30;52.30
12977;DHT22;6553;48.412;9.514;2023-04-03T15:45:41;19.30;52.20
12977;DHT22;6553;48.412;9.514;2023-04-03T15:48:09;19.30;52.20
12977;DHT22;6553;48.412;9.514;2023-04-03T15:50:35;19.30;52.20
12977;DHT22;6553;48.412;9.514;2023-04-03T15:53:01;19.30;52.20
12977;DHT22;6553;48.412;9.514;2023-04-03T15:55:30;19.30;52.10
12977;DHT22;6553;48.412;9.514;2023-04-03T15:57:58;19.20;52.00
12977;DHT22;6553;48.412;9.514;2023-04-03T16:00:25;19.30;52.20
12977;DHT22;6553;48.412;9.514;2023-04-03T16:02:55;19.20;52.10
12977;DHT22;6553;48.412;9.514;2023-04-03T16:05:24;19.30;52.10
12977;DHT22;6553;48.412;9.514;2023-04-03T16:07:51;19.30;52.10
12977;DHT22;6553;48.412;9.514;2023-04-03T16:10:18;19.20;52.00
12977;DHT22;6553;48.412;9.514;2023-04-03T16:12:44;19.30;52.10
12977;DHT22;6553;48.412;9.514;2023-04-03T16:15:10;19.30;52.10
12977;DHT22;6553;48.412;9.514;2023-04-03T16:17:38;19.30;52.10
12977;DHT22;6553;48.412;9.514;2023-04-03T16:20:07;19.30;52.10
12977;DHT22;6553;48.412;9.514;2023-04-03T16:22:35;19.20;52.00
12977;DHT22;6553;48.412;9.514;2023-04-03T16:25:02;19.20;52.00
12977;DHT22;6553;48.412;9.514;2023-04-03T16:27:29;19.30;52.00
12977;DHT22;6553;48.412;9.514;2023-04-03T16:29:56;19.20;51.90
12977;DHT22;6553;48.412;9.514;2023-04-03T16:32:23;19.20;51.90
12977;DHT22;6553;48.412;9.514;2023-04-03T16:34:53;19.20;52.00
12977;DHT22;6553;48.412;9.514;2023-04-03T16:37:18;19.30;52.00
12977;DHT22;6553;48.412;9.514;2023-04-03T16:39:44;19.20;51.90
12977;DHT22;6553;48.412;9.514;2023-04-03T16:42:10;19.30;52.00
12977;DHT22;6553;48.412;9.514;2023-04-03T16:44:37;19.20;51.80
12977;DHT22;6553;48.412;9.514;2023-04-03T16:47:03;19.20;51.90
12977;DHT22;6553;48.412;9.514;2023-04-03T16:49:29;19.30;51.90
12977;DHT22;6553;48.412;9.514;2023-04-03T16:51:58;19.30;51.90
12977;DHT22;6553;48.412;9.514;2023-04-03T16:54:26;19.20;51.90
12977;DHT22;6553;48.412;9.514;2023-04-03T16:56:52;19.30;51.90
12977;DHT22;6553;48.412;9.514;2023-04-03T16:59:18;19.20;51.90
12977;DHT22;6553;48.412;9.514;2023-04-03T17:01:43;19.20;51.80
12977;DHT22;6553;48.412;9.514;2023-04-03T17:04:09;19.20;51.80
12977;DHT22;6553;48.412;9.514;2023-04-03T17:06:35;19.20;51.70
12977;DHT22;6553;48.412;9.514;2023-04-03T17:09:01;19.20;51.80
12977;DHT22;6553;48.412;9.514;2023-04-03T17:11:28;19.20;51.70
12977;DHT22;6553;48.412;9.514;2023-04-03T17:13:55;19.20;51.70
12977;DHT22;6553;48.412;9.514;2023-04-03T17:16:21;19.20;51.70
12977;DHT22;6553;48.412;9.514;2023-04-03T17:18:48;19.20;51.70
12977;DHT22;6553;48.412;9.514;2023-04-03T17:21:15;19.20;51.70
12977;DHT22;6553;48.412;9.514;2023-04-03T17:23:45;19.20;51.70
12977;DHT22;6553;48.412;9.514;2023-04-03T17:26:14;19.20;51.70
12977;DHT22;6553;48.412;9.514;2023-04-03T17:28:40;19.20;51.70
12977;DHT22;6553;48.412;9.514;2023-04-03T17:31:06;19.20;51.80
12977;DHT22;6553;48.412;9.514;2023-04-03T17:33:32;19.20;51.70
12977;DHT22;6553;48.412;9.514;2023-04-03T17:36:01;19.20;51.60
12977;DHT22;6553;48.412;9.514;2023-04-03T17:38:29;19.20;51.60
12977;DHT22;6553;48.412;9.514;2023-04-03T17:40:57;19.20;51.60
12977;DHT22;6553;48.412;9.514;2023-04-03T17:43:24;19.20;51.60
12977;DHT22;6553;48.412;9.514;2023-04-03T17:45:50;19.20;51.60
12977;DHT22;6553;48.412;9.514;2023-04-03T17:48:16;19.20;51.60
12977;DHT22;6553;48.412;9.514;2023-04-03T17:50:41;19.20;51.60
12977;DHT22;6553;48.412;9.514;2023-04-03T17:53:07;19.20;51.60
12977;DHT22;6553;48.412;9.514;2023-04-03T17:55:35;19.20;51.60
12977;DHT22;6553;48.412;9.514;2023-04-03T17:58:02;19.20;51.50
12977;DHT22;6553;48.412;9.514;2023-04-03T18:00:28;19.20;51.60
12977;DHT22;6553;48.412;9.514;2023-04-03T18:02:54;19.20;51.60